sensor_id;sensor_type;location;lat;lon;timestamp;P1;durP1;ratioP1;P2;durP2;ratioP2
82722;SDS011;72450;42.008;21.356;2024-01-06T00:00:51;659.33;;;229.38;;
82722;SDS011;72450;42.008;21.356;2024-01-06T00:03:18;504.60;;;175.77;;
82722;SDS011;72450;42.008;21.356;2024-01-06T00:05:45;471.20;;;162.05;;
82722;SDS011;72450;42.008;21.356;2024-01-06T00:08:11;688.45;;;229.45;;
82722;SDS011;72450;42.008;21.356;2024-01-06T00:10:37;681.67;;;243.63;;
82722;SDS011;72450;42.008;21.356;2024-01-06T00:13:03;686.97;;;181.43;;
82722;SDS011;72450;42.008;21.356;2024-01-06T00:15:29;736.15;;;252.23;;
82722;SDS011;72450;42.008;21.356;2024-01-06T00:17:55;850.33;;;272.80;;
82722;SDS011;72450;42.008;21.356;2024-01-06T00:20:21;580.90;;;169.52;;
82722;SDS011;72450;42.008;21.356;2024-01-06T00:22:47;686.75;;;227.95;;
82722;SDS011;72450;42.008;21.356;2024-01-06T00:25:13;772.95;;;254.68;;
82722;SDS011;72450;42.008;21.356;2024-01-06T00:27:39;559.67;;;168.15;;
82722;SDS011;72450;42.008;21.356;2024-01-06T00:30:06;699.05;;;221.10;;
82722;SDS011;72450;42.008;21.356;2024-01-06T00:32:33;723.13;;;234.07;;
82722;SDS011;72450;42.008;21.356;2024-01-06T00:34:59;626.45;;;210.10;;
82722;SDS011;72450;42.008;21.356;2024-01-06T00:37:25;777.97;;;255.70;;
82722;SDS011;72450;42.008;21.356;2024-01-06T00:39:51;644.97;;;194.98;;
82722;SDS011;72450;42.008;21.356;2024-01-06T00:42:17;589.78;;;210.63;;
82722;SDS011;72450;42.008;21.356;2024-01-06T00:44:43;775.35;;;260.75;;
82722;SDS011;72450;42.008;21.356;2024-01-06T00:47:10;889.28;;;289.45;;
82722;SDS011;72450;42.008;21.356;2024-01-06T00:49:36;543.20;;;172.35;;
82722;SDS011;72450;42.008;21.356;2024-01-06T00:52:03;618.38;;;215.20;;
82722;SDS011;72450;42.008;21.356;2024-01-06T00:54:29;732.35;;;274.73;;
82722;SDS011;72450;42.008;21.356;2024-01-06T00:56:55;619.45;;;204.88;;
82722;SDS011;72450;42.008;21.356;2024-01-06T00:59:21;864.00;;;291.23;;
82722;SDS011;72450;42.008;21.356;2024-01-06T01:01:47;616.90;;;195.90;;
82722;SDS011;72450;42.008;21.356;2024-01-06T01:04:13;582.40;;;206.80;;
82722;SDS011;72450;42.008;21.356;2024-01-06T01:06:39;702.47;;;268.40;;
82722;SDS011;72450;42.008;21.356;2024-01-06T01:09:05;677.55;;;248.82;;
82722;SDS011;72450;42.008;21.356;2024-01-06T01:13:59;572.75;;;204.40;;
82722;SDS011;72450;42.008;21.356;2024-01-06T01:16:25;546.25;;;171.75;;
82722;SDS011;72450;42.008;21.356;2024-01-06T01:18:51;598.78;;;244.00;;
82722;SDS011;72450;42.008;21.356;2024-01-06T01:21:18;917.15;;;305.90;;
82722;SDS011;72450;42.008;21.356;2024-01-06T01:23:44;663.63;;;243.55;;
82722;SDS011;72450;42.008;21.356;2024-01-06T01:26:10;693.67;;;259.73;;
82722;SDS011;72450;42.008;21.356;2024-01-06T01:28:36;641.25;;;214.43;;
82722;SDS011;72450;42.008;21.356;2024-01-06T01:31:03;788.17;;;288.13;;
82722;SDS011;72450;42.008;21.356;2024-01-06T01:33:29;597.45;;;228.23;;
82722;SDS011;72450;42.008;21.356;2024-01-06T01:35:55;533.00;;;170.63;;
82722;SDS011;72450;42.008;21.356;2024-01-06T01:38:21;595.28;;;248.00;;
82722;SDS011;72450;42.008;21.356;2024-01-06T01:40:47;415.05;;;153.70;;
82722;SDS011;72450;42.008;21.356;2024-01-06T01:43:19;653.60;;;252.10;;
82722;SDS011;72450;42.008;21.356;2024-01-06T01:45:55;680.72;;;259.95;;
82722;SDS011;72450;42.008;21.356;2024-01-06T01:48:22;518.58;;;185.15;;
82722;SDS011;72450;42.008;21.356;2024-01-06T01:50:48;455.65;;;198.95;;
82722;SDS011;72450;42.008;21.356;2024-01-06T01:53:14;497.08;;;169.85;;
82722;SDS011;72450;42.008;21.356;2024-01-06T01:55:41;686.67;;;242.43;;
82722;SDS011;72450;42.008;21.356;2024-01-06T01:58:07;780.30;;;270.88;;
82722;SDS011;72450;42.008;21.356;2024-01-06T02:00:34;378.65;;;148.63;;
82722;SDS011;72450;42.008;21.356;2024-01-06T02:03:01;543.55;;;202.52;;
82722;SDS011;72450;42.008;21.356;2024-01-06T02:07:54;380.77;;;127.28;;
82722;SDS011;72450;42.008;21.356;2024-01-06T02:10:20;550.55;;;210.57;;
82722;SDS011;72450;42.008;21.356;2024-01-06T02:12:47;683.60;;;245.10;;
82722;SDS011;72450;42.008;21.356;2024-01-06T02:15:14;447.30;;;155.35;;
82722;SDS011;72450;42.008;21.356;2024-01-06T02:17:40;701.25;;;255.90;;
82722;SDS011;72450;42.008;21.356;2024-01-06T02:20:09;568.72;;;198.93;;
82722;SDS011;72450;42.008;21.356;2024-01-06T02:22:37;491.65;;;156.50;;
82722;SDS011;72450;42.008;21.356;2024-01-06T02:25:06;653.47;;;211.82;;
82722;SDS011;72450;42.008;21.356;2024-01-06T02:27:38;702.60;;;239.70;;
82722;SDS011;72450;42.008;21.356;2024-01-06T02:30:05;596.78;;;170.30;;
82722;SDS011;72450;42.008;21.356;2024-01-06T02:32:31;331.63;;;112.20;;
82722;SDS011;72450;42.008;21.356;2024-01-06T02:34:57;337.55;;;126.03;;
82722;SDS011;72450;42.008;21.356;2024-01-06T02:37:23;529.90;;;185.43;;
82722;SDS011;72450;42.008;21.356;2024-01-06T02:39:49;406.95;;;160.00;;
82722;SDS011;72450;42.008;21.356;2024-01-06T02:42:17;531.20;;;158.40;;
82722;SDS011;72450;42.008;21.356;2024-01-06T02:44:44;530.35;;;200.10;;
82722;SDS011;72450;42.008;21.356;2024-01-06T02:47:10;649.97;;;237.40;;
82722;SDS011;72450;42.008;21.356;2024-01-06T02:49:36;359.67;;;128.25;;
82722;SDS011;72450;42.008;21.356;2024-01-06T02:52:03;543.53;;;201.50;;
82722;SDS011;72450;42.008;21.356;2024-01-06T02:54:29;612.30;;;223.68;;
82722;SDS011;72450;42.008;21.356;2024-01-06T02:56:55;349.20;;;125.20;;
82722;SDS011;72450;42.008;21.356;2024-01-06T02:59:21;554.58;;;223.70;;
82722;SDS011;72450;42.008;21.356;2024-01-06T03:01:47;407.27;;;163.30;;
82722;SDS011;72450;42.008;21.356;2024-01-06T03:04:14;434.13;;;172.05;;
82722;SDS011;72450;42.008;21.356;2024-01-06T03:06:40;566.40;;;198.73;;
82722;SDS011;72450;42.008;21.356;2024-01-06T03:09:06;306.27;;;117.78;;
82722;SDS011;72450;42.008;21.356;2024-01-06T03:11:32;533.10;;;214.85;;
82722;SDS011;72450;42.008;21.356;2024-01-06T03:13:58;583.38;;;210.00;;
82722;SDS011;72450;42.008;21.356;2024-01-06T03:16:24;508.73;;;199.55;;
82722;SDS011;72450;42.008;21.356;2024-01-06T03:18:50;560.33;;;219.48;;
82722;SDS011;72450;42.008;21.356;2024-01-06T03:21:17;534.95;;;205.10;;
82722;SDS011;72450;42.008;21.356;2024-01-06T03:23:43;628.92;;;228.13;;
82722;SDS011;72450;42.008;21.356;2024-01-06T03:26:09;444.23;;;151.73;;
82722;SDS011;72450;42.008;21.356;2024-01-06T03:28:35;566.25;;;191.93;;
82722;SDS011;72450;42.008;21.356;2024-01-06T03:31:01;413.45;;;168.68;;
82722;SDS011;72450;42.008;21.356;2024-01-06T03:33:28;356.20;;;142.98;;
82722;SDS011;72450;42.008;21.356;2024-01-06T03:35:54;424.67;;;147.40;;
82722;SDS011;72450;42.008;21.356;2024-01-06T03:38:20;392.77;;;157.15;;
82722;SDS011;72450;42.008;21.356;2024-01-06T03:40:46;245.90;;;100.10;;
82722;SDS011;72450;42.008;21.356;2024-01-06T03:43:12;380.52;;;146.70;;
82722;SDS011;72450;42.008;21.356;2024-01-06T03:45:38;372.45;;;147.90;;
82722;SDS011;72450;42.008;21.356;2024-01-06T03:48:04;356.85;;;146.32;;
82722;SDS011;72450;42.008;21.356;2024-01-06T03:50:30;372.05;;;143.05;;
82722;SDS011;72450;42.008;21.356;2024-01-06T03:52:56;378.27;;;150.20;;
82722;SDS011;72450;42.008;21.356;2024-01-06T03:55:22;395.95;;;150.73;;
82722;SDS011;72450;42.008;21.356;2024-01-06T03:57:48;272.83;;;112.38;;
82722;SDS011;72450;42.008;21.356;2024-01-06T04:00:15;234.07;;;98.15;;
82722;SDS011;72450;42.008;21.356;2024-01-06T04:02:41;337.00;;;127.03;;
82722;SDS011;72450;42.008;21.356;2024-01-06T04:05:07;350.60;;;127.70;;
82722;SDS011;72450;42.008;21.356;2024-01-06T04:07:33;330.70;;;122.47;;
82722;SDS011;72450;42.008;21.356;2024-01-06T04:09:59;450.33;;;147.02;;
82722;SDS011;72450;42.008;21.356;2024-01-06T04:12:25;204.82;;;85.38;;
82722;SDS011;72450;42.008;21.356;2024-01-06T04:14:51;414.10;;;139.02;;
82722;SDS011;72450;42.008;21.356;2024-01-06T04:17:18;338.23;;;124.70;;
82722;SDS011;72450;42.008;21.356;2024-01-06T04:19:44;269.38;;;102.85;;
82722;SDS011;72450;42.008;21.356;2024-01-06T04:22:10;331.92;;;117.43;;
82722;SDS011;72450;42.008;21.356;2024-01-06T04:24:36;276.83;;;105.15;;
82722;SDS011;72450;42.008;21.356;2024-01-06T04:27:05;351.48;;;110.90;;
82722;SDS011;72450;42.008;21.356;2024-01-06T04:29:31;420.38;;;129.20;;
82722;SDS011;72450;42.008;21.356;2024-01-06T04:31:57;412.33;;;128.98;;
82722;SDS011;72450;42.008;21.356;2024-01-06T04:34:23;291.10;;;100.00;;
82722;SDS011;72450;42.008;21.356;2024-01-06T04:36:49;203.45;;;91.10;;
82722;SDS011;72450;42.008;21.356;2024-01-06T04:39:16;267.85;;;107.32;;
82722;SDS011;72450;42.008;21.356;2024-01-06T04:41:42;202.50;;;85.15;;
82722;SDS011;72450;42.008;21.356;2024-01-06T04:44:08;314.25;;;109.10;;
82722;SDS011;72450;42.008;21.356;2024-01-06T04:46:34;323.35;;;113.80;;
82722;SDS011;72450;42.008;21.356;2024-01-06T04:49:00;396.25;;;117.82;;
82722;SDS011;72450;42.008;21.356;2024-01-06T04:51:26;312.50;;;102.50;;
82722;SDS011;72450;42.008;21.356;2024-01-06T04:53:52;247.35;;;89.13;;
82722;SDS011;72450;42.008;21.356;2024-01-06T04:56:18;468.98;;;123.40;;
82722;SDS011;72450;42.008;21.356;2024-01-06T04:58:44;279.40;;;95.57;;
82722;SDS011;72450;42.008;21.356;2024-01-06T05:01:10;249.10;;;91.40;;
82722;SDS011;72450;42.008;21.356;2024-01-06T05:03:37;323.52;;;115.28;;
82722;SDS011;72450;42.008;21.356;2024-01-06T05:06:03;318.50;;;123.57;;
82722;SDS011;72450;42.008;21.356;2024-01-06T05:08:29;424.27;;;151.00;;
82722;SDS011;72450;42.008;21.356;2024-01-06T05:10:58;295.65;;;119.50;;
82722;SDS011;72450;42.008;21.356;2024-01-06T05:13:25;305.27;;;114.30;;
82722;SDS011;72450;42.008;21.356;2024-01-06T05:15:51;351.05;;;136.80;;
82722;SDS011;72450;42.008;21.356;2024-01-06T05:18:17;380.05;;;135.93;;
82722;SDS011;72450;42.008;21.356;2024-01-06T05:20:43;418.40;;;138.48;;
82722;SDS011;72450;42.008;21.356;2024-01-06T05:23:10;350.40;;;136.45;;
82722;SDS011;72450;42.008;21.356;2024-01-06T05:25:36;264.35;;;104.68;;
82722;SDS011;72450;42.008;21.356;2024-01-06T05:28:02;445.00;;;165.20;;
82722;SDS011;72450;42.008;21.356;2024-01-06T05:30:28;322.88;;;129.88;;
82722;SDS011;72450;42.008;21.356;2024-01-06T05:32:54;316.40;;;140.55;;
82722;SDS011;72450;42.008;21.356;2024-01-06T05:35:21;392.05;;;149.05;;
82722;SDS011;72450;42.008;21.356;2024-01-06T05:37:48;383.08;;;142.43;;
82722;SDS011;72450;42.008;21.356;2024-01-06T05:40:14;445.15;;;154.57;;
82722;SDS011;72450;42.008;21.356;2024-01-06T05:42:40;341.52;;;140.15;;
82722;SDS011;72450;42.008;21.356;2024-01-06T05:45:06;558.72;;;183.68;;
82722;SDS011;72450;42.008;21.356;2024-01-06T05:47:36;375.15;;;154.65;;
82722;SDS011;72450;42.008;21.356;2024-01-06T05:50:03;339.42;;;127.85;;
82722;SDS011;72450;42.008;21.356;2024-01-06T05:52:29;367.45;;;131.93;;
82722;SDS011;72450;42.008;21.356;2024-01-06T05:54:55;375.25;;;133.18;;
82722;SDS011;72450;42.008;21.356;2024-01-06T05:57:21;431.58;;;153.65;;
82722;SDS011;72450;42.008;21.356;2024-01-06T05:59:47;230.68;;;85.50;;
82722;SDS011;72450;42.008;21.356;2024-01-06T06:02:14;506.85;;;165.23;;
82722;SDS011;72450;42.008;21.356;2024-01-06T06:04:40;369.27;;;134.55;;
82722;SDS011;72450;42.008;21.356;2024-01-06T06:07:06;395.70;;;126.78;;
82722;SDS011;72450;42.008;21.356;2024-01-06T06:09:32;334.90;;;118.57;;
82722;SDS011;72450;42.008;21.356;2024-01-06T06:11:59;414.10;;;136.95;;
82722;SDS011;72450;42.008;21.356;2024-01-06T06:14:25;286.65;;;109.90;;
82722;SDS011;72450;42.008;21.356;2024-01-06T06:16:53;257.02;;;116.63;;
82722;SDS011;72450;42.008;21.356;2024-01-06T06:19:19;278.33;;;97.57;;
82722;SDS011;72450;42.008;21.356;2024-01-06T06:21:45;286.90;;;109.00;;
82722;SDS011;72450;42.008;21.356;2024-01-06T06:24:12;292.00;;;106.82;;
82722;SDS011;72450;42.008;21.356;2024-01-06T06:26:38;383.42;;;123.60;;
82722;SDS011;72450;42.008;21.356;2024-01-06T06:29:04;257.73;;;102.30;;
82722;SDS011;72450;42.008;21.356;2024-01-06T06:31:30;226.27;;;93.03;;
82722;SDS011;72450;42.008;21.356;2024-01-06T06:33:56;256.13;;;95.22;;
82722;SDS011;72450;42.008;21.356;2024-01-06T06:36:22;220.90;;;96.60;;
82722;SDS011;72450;42.008;21.356;2024-01-06T06:38:48;217.85;;;90.72;;
82722;SDS011;72450;42.008;21.356;2024-01-06T06:41:15;344.40;;;130.38;;
82722;SDS011;72450;42.008;21.356;2024-01-06T06:43:41;302.08;;;133.77;;
82722;SDS011;72450;42.008;21.356;2024-01-06T06:46:08;306.25;;;115.78;;
82722;SDS011;72450;42.008;21.356;2024-01-06T06:48:34;163.05;;;67.88;;
82722;SDS011;72450;42.008;21.356;2024-01-06T06:51:01;183.05;;;74.32;;
82722;SDS011;72450;42.008;21.356;2024-01-06T06:53:27;264.30;;;107.95;;
82722;SDS011;72450;42.008;21.356;2024-01-06T06:55:53;285.40;;;127.20;;
82722;SDS011;72450;42.008;21.356;2024-01-06T06:58:19;282.90;;;129.80;;
82722;SDS011;72450;42.008;21.356;2024-01-06T07:00:45;268.20;;;122.88;;
82722;SDS011;72450;42.008;21.356;2024-01-06T07:03:11;268.02;;;119.47;;
82722;SDS011;72450;42.008;21.356;2024-01-06T07:05:39;266.08;;;122.32;;
82722;SDS011;72450;42.008;21.356;2024-01-06T07:08:05;266.25;;;131.88;;
82722;SDS011;72450;42.008;21.356;2024-01-06T07:10:31;249.27;;;129.50;;
82722;SDS011;72450;42.008;21.356;2024-01-06T07:12:57;279.38;;;145.52;;
82722;SDS011;72450;42.008;21.356;2024-01-06T07:15:23;231.45;;;123.10;;
82722;SDS011;72450;42.008;21.356;2024-01-06T07:17:49;225.85;;;122.93;;
82722;SDS011;72450;42.008;21.356;2024-01-06T07:20:15;233.07;;;123.53;;
82722;SDS011;72450;42.008;21.356;2024-01-06T07:22:41;211.82;;;119.03;;
82722;SDS011;72450;42.008;21.356;2024-01-06T07:25:08;185.20;;;104.60;;
82722;SDS011;72450;42.008;21.356;2024-01-06T07:27:34;175.80;;;100.00;;
82722;SDS011;72450;42.008;21.356;2024-01-06T07:30:00;171.50;;;98.18;;
82722;SDS011;72450;42.008;21.356;2024-01-06T07:32:26;227.70;;;123.05;;
82722;SDS011;72450;42.008;21.356;2024-01-06T07:34:52;213.77;;;121.35;;
82722;SDS011;72450;42.008;21.356;2024-01-06T07:37:18;200.32;;;116.95;;
82722;SDS011;72450;42.008;21.356;2024-01-06T07:39:44;197.57;;;112.57;;
82722;SDS011;72450;42.008;21.356;2024-01-06T07:42:10;161.95;;;91.97;;
82722;SDS011;72450;42.008;21.356;2024-01-06T07:44:36;130.52;;;75.15;;
82722;SDS011;72450;42.008;21.356;2024-01-06T07:47:02;158.48;;;89.35;;
82722;SDS011;72450;42.008;21.356;2024-01-06T07:49:30;180.70;;;105.07;;
82722;SDS011;72450;42.008;21.356;2024-01-06T07:51:56;187.50;;;104.53;;
82722;SDS011;72450;42.008;21.356;2024-01-06T07:54:22;188.15;;;102.72;;
82722;SDS011;72450;42.008;21.356;2024-01-06T07:56:48;182.60;;;97.85;;
82722;SDS011;72450;42.008;21.356;2024-01-06T07:59:15;214.77;;;119.20;;
82722;SDS011;72450;42.008;21.356;2024-01-06T08:01:41;203.05;;;110.63;;
82722;SDS011;72450;42.008;21.356;2024-01-06T08:04:08;207.30;;;119.53;;
82722;SDS011;72450;42.008;21.356;2024-01-06T08:06:34;204.68;;;108.97;;
82722;SDS011;72450;42.008;21.356;2024-01-06T08:09:01;167.00;;;101.05;;
82722;SDS011;72450;42.008;21.356;2024-01-06T08:11:28;166.48;;;97.53;;
82722;SDS011;72450;42.008;21.356;2024-01-06T08:13:54;135.18;;;83.10;;
82722;SDS011;72450;42.008;21.356;2024-01-06T08:16:20;138.50;;;83.13;;
82722;SDS011;72450;42.008;21.356;2024-01-06T08:18:47;144.38;;;89.35;;
82722;SDS011;72450;42.008;21.356;2024-01-06T08:21:13;195.80;;;116.72;;
82722;SDS011;72450;42.008;21.356;2024-01-06T08:23:39;191.05;;;111.30;;
82722;SDS011;72450;42.008;21.356;2024-01-06T08:26:05;172.15;;;100.15;;
82722;SDS011;72450;42.008;21.356;2024-01-06T08:28:31;179.38;;;106.18;;
82722;SDS011;72450;42.008;21.356;2024-01-06T08:30:57;168.27;;;98.88;;
82722;SDS011;72450;42.008;21.356;2024-01-06T08:33:23;163.30;;;97.47;;
82722;SDS011;72450;42.008;21.356;2024-01-06T08:35:49;150.20;;;89.68;;
82722;SDS011;72450;42.008;21.356;2024-01-06T08:38:15;87.20;;;53.88;;
82722;SDS011;72450;42.008;21.356;2024-01-06T08:40:42;57.75;;;35.67;;
82722;SDS011;72450;42.008;21.356;2024-01-06T08:43:10;57.63;;;36.13;;
82722;SDS011;72450;42.008;21.356;2024-01-06T08:45:36;63.97;;;38.75;;
82722;SDS011;72450;42.008;21.356;2024-01-06T08:48:02;29.10;;;16.58;;
82722;SDS011;72450;42.008;21.356;2024-01-06T08:50:29;37.38;;;22.23;;
82722;SDS011;72450;42.008;21.356;2024-01-06T08:52:55;35.92;;;20.88;;
82722;SDS011;72450;42.008;21.356;2024-01-06T08:55:21;61.25;;;38.33;;
82722;SDS011;72450;42.008;21.356;2024-01-06T08:57:47;68.25;;;41.33;;
82722;SDS011;72450;42.008;21.356;2024-01-06T09:00:13;72.30;;;44.92;;
82722;SDS011;72450;42.008;21.356;2024-01-06T09:02:39;67.07;;;43.10;;
82722;SDS011;72450;42.008;21.356;2024-01-06T09:05:05;56.85;;;36.53;;
82722;SDS011;72450;42.008;21.356;2024-01-06T09:07:31;46.92;;;33.83;;
82722;SDS011;72450;42.008;21.356;2024-01-06T09:09:57;54.35;;;32.15;;
82722;SDS011;72450;42.008;21.356;2024-01-06T09:12:24;62.25;;;38.95;;
82722;SDS011;72450;42.008;21.356;2024-01-06T09:14:50;71.28;;;41.33;;
82722;SDS011;72450;42.008;21.356;2024-01-06T09:17:16;53.78;;;33.88;;
82722;SDS011;72450;42.008;21.356;2024-01-06T09:19:42;50.75;;;31.15;;
82722;SDS011;72450;42.008;21.356;2024-01-06T09:22:08;49.28;;;31.20;;
82722;SDS011;72450;42.008;21.356;2024-01-06T09:24:34;62.28;;;32.20;;
82722;SDS011;72450;42.008;21.356;2024-01-06T09:27:01;70.70;;;37.75;;
82722;SDS011;72450;42.008;21.356;2024-01-06T09:29:27;58.25;;;35.05;;
82722;SDS011;72450;42.008;21.356;2024-01-06T09:31:53;56.78;;;37.03;;
82722;SDS011;72450;42.008;21.356;2024-01-06T09:34:19;55.10;;;36.30;;
82722;SDS011;72450;42.008;21.356;2024-01-06T09:36:45;61.42;;;38.88;;
82722;SDS011;72450;42.008;21.356;2024-01-06T09:39:11;59.03;;;38.40;;
82722;SDS011;72450;42.008;21.356;2024-01-06T09:41:37;63.65;;;38.20;;
82722;SDS011;72450;42.008;21.356;2024-01-06T09:44:03;83.28;;;47.42;;
82722;SDS011;72450;42.008;21.356;2024-01-06T09:46:30;96.97;;;61.90;;
82722;SDS011;72450;42.008;21.356;2024-01-06T09:48:56;140.05;;;86.15;;
82722;SDS011;72450;42.008;21.356;2024-01-06T09:51:23;155.93;;;93.85;;
82722;SDS011;72450;42.008;21.356;2024-01-06T09:53:52;147.60;;;89.03;;
82722;SDS011;72450;42.008;21.356;2024-01-06T09:56:22;158.38;;;95.50;;
82722;SDS011;72450;42.008;21.356;2024-01-06T09:58:49;165.15;;;98.25;;
82722;SDS011;72450;42.008;21.356;2024-01-06T10:01:17;154.43;;;95.30;;
82722;SDS011;72450;42.008;21.356;2024-01-06T10:03:43;147.82;;;91.65;;
82722;SDS011;72450;42.008;21.356;2024-01-06T10:06:10;145.88;;;90.82;;
82722;SDS011;72450;42.008;21.356;2024-01-06T10:08:37;133.00;;;85.00;;
82722;SDS011;72450;42.008;21.356;2024-01-06T10:11:05;141.15;;;90.22;;
82722;SDS011;72450;42.008;21.356;2024-01-06T10:15:59;154.70;;;92.82;;
82722;SDS011;72450;42.008;21.356;2024-01-06T10:18:26;146.27;;;92.75;;
82722;SDS011;72450;42.008;21.356;2024-01-06T10:20:54;160.98;;;97.22;;
82722;SDS011;72450;42.008;21.356;2024-01-06T10:23:24;143.73;;;90.88;;
82722;SDS011;72450;42.008;21.356;2024-01-06T10:25:53;156.70;;;102.43;;
82722;SDS011;72450;42.008;21.356;2024-01-06T10:28:22;159.00;;;106.07;;
82722;SDS011;72450;42.008;21.356;2024-01-06T10:30:52;163.18;;;108.30;;
82722;SDS011;72450;42.008;21.356;2024-01-06T10:33:19;181.02;;;114.18;;
82722;SDS011;72450;42.008;21.356;2024-01-06T10:35:46;176.85;;;117.18;;
82722;SDS011;72450;42.008;21.356;2024-01-06T10:38:12;198.45;;;125.28;;
82722;SDS011;72450;42.008;21.356;2024-01-06T10:40:38;208.77;;;130.40;;
82722;SDS011;72450;42.008;21.356;2024-01-06T10:43:04;185.68;;;126.57;;
82722;SDS011;72450;42.008;21.356;2024-01-06T10:45:31;190.02;;;122.85;;
82722;SDS011;72450;42.008;21.356;2024-01-06T10:47:57;184.50;;;124.75;;
82722;SDS011;72450;42.008;21.356;2024-01-06T10:50:23;198.80;;;129.18;;
82722;SDS011;72450;42.008;21.356;2024-01-06T10:52:49;196.18;;;127.38;;
82722;SDS011;72450;42.008;21.356;2024-01-06T10:55:16;181.25;;;115.88;;
82722;SDS011;72450;42.008;21.356;2024-01-06T10:57:43;163.73;;;104.75;;
82722;SDS011;72450;42.008;21.356;2024-01-06T11:00:10;177.20;;;111.18;;
82722;SDS011;72450;42.008;21.356;2024-01-06T11:02:37;186.55;;;127.30;;
82722;SDS011;72450;42.008;21.356;2024-01-06T11:05:03;150.02;;;98.32;;
82722;SDS011;72450;42.008;21.356;2024-01-06T11:07:32;174.32;;;117.20;;
82722;SDS011;72450;42.008;21.356;2024-01-06T11:10:33;179.50;;;110.88;;
82722;SDS011;72450;42.008;21.356;2024-01-06T11:13:11;157.88;;;103.15;;
82722;SDS011;72450;42.008;21.356;2024-01-06T11:18:10;152.45;;;100.57;;
82722;SDS011;72450;42.008;21.356;2024-01-06T11:23:42;114.15;;;72.50;;
82722;SDS011;72450;42.008;21.356;2024-01-06T11:26:08;111.18;;;71.35;;
82722;SDS011;72450;42.008;21.356;2024-01-06T11:28:47;85.05;;;52.85;;
82722;SDS011;72450;42.008;21.356;2024-01-06T11:31:13;92.55;;;62.67;;
82722;SDS011;72450;42.008;21.356;2024-01-06T11:33:43;88.85;;;55.40;;
82722;SDS011;72450;42.008;21.356;2024-01-06T11:36:09;85.35;;;52.88;;
82722;SDS011;72450;42.008;21.356;2024-01-06T11:38:39;101.07;;;60.58;;
82722;SDS011;72450;42.008;21.356;2024-01-06T11:41:08;99.22;;;68.03;;
82722;SDS011;72450;42.008;21.356;2024-01-06T11:43:37;97.35;;;63.70;;
82722;SDS011;72450;42.008;21.356;2024-01-06T11:46:05;109.10;;;70.50;;
82722;SDS011;72450;42.008;21.356;2024-01-06T11:48:32;117.25;;;70.93;;
82722;SDS011;72450;42.008;21.356;2024-01-06T11:50:58;77.93;;;53.25;;
82722;SDS011;72450;42.008;21.356;2024-01-06T11:53:28;87.60;;;52.85;;
82722;SDS011;72450;42.008;21.356;2024-01-06T11:55:54;84.07;;;51.55;;
82722;SDS011;72450;42.008;21.356;2024-01-06T11:58:20;84.18;;;48.95;;
82722;SDS011;72450;42.008;21.356;2024-01-06T12:00:54;79.57;;;48.83;;
82722;SDS011;72450;42.008;21.356;2024-01-06T12:03:21;75.63;;;44.58;;
82722;SDS011;72450;42.008;21.356;2024-01-06T12:06:01;72.22;;;46.17;;
82722;SDS011;72450;42.008;21.356;2024-01-06T12:08:27;61.97;;;35.45;;
82722;SDS011;72450;42.008;21.356;2024-01-06T12:11:03;55.70;;;34.25;;
82722;SDS011;72450;42.008;21.356;2024-01-06T12:13:30;56.80;;;36.15;;
82722;SDS011;72450;42.008;21.356;2024-01-06T12:15:56;60.38;;;39.70;;
82722;SDS011;72450;42.008;21.356;2024-01-06T12:18:22;60.08;;;39.35;;
82722;SDS011;72450;42.008;21.356;2024-01-06T12:20:49;66.20;;;44.67;;
82722;SDS011;72450;42.008;21.356;2024-01-06T12:23:25;68.78;;;43.75;;
82722;SDS011;72450;42.008;21.356;2024-01-06T12:25:53;67.20;;;41.63;;
82722;SDS011;72450;42.008;21.356;2024-01-06T12:28:19;65.45;;;42.22;;
82722;SDS011;72450;42.008;21.356;2024-01-06T12:30:45;68.70;;;41.70;;
82722;SDS011;72450;42.008;21.356;2024-01-06T12:33:11;72.50;;;45.75;;
82722;SDS011;72450;42.008;21.356;2024-01-06T12:35:39;80.53;;;47.88;;
82722;SDS011;72450;42.008;21.356;2024-01-06T12:38:05;76.07;;;48.08;;
82722;SDS011;72450;42.008;21.356;2024-01-06T12:40:32;70.40;;;43.00;;
82722;SDS011;72450;42.008;21.356;2024-01-06T12:42:58;68.80;;;43.95;;
82722;SDS011;72450;42.008;21.356;2024-01-06T12:45:24;68.47;;;39.78;;
82722;SDS011;72450;42.008;21.356;2024-01-06T12:47:52;77.30;;;49.00;;
82722;SDS011;72450;42.008;21.356;2024-01-06T12:50:19;77.40;;;48.88;;
82722;SDS011;72450;42.008;21.356;2024-01-06T12:52:45;75.45;;;47.50;;
82722;SDS011;72450;42.008;21.356;2024-01-06T12:55:11;70.05;;;42.22;;
82722;SDS011;72450;42.008;21.356;2024-01-06T12:57:37;69.18;;;42.33;;
82722;SDS011;72450;42.008;21.356;2024-01-06T13:00:04;63.30;;;38.78;;
82722;SDS011;72450;42.008;21.356;2024-01-06T13:02:35;65.15;;;41.60;;
82722;SDS011;72450;42.008;21.356;2024-01-06T13:05:02;67.15;;;40.30;;
82722;SDS011;72450;42.008;21.356;2024-01-06T13:07:29;59.75;;;37.88;;
82722;SDS011;72450;42.008;21.356;2024-01-06T13:09:55;91.47;;;48.25;;
82722;SDS011;72450;42.008;21.356;2024-01-06T13:12:40;80.43;;;45.10;;
82722;SDS011;72450;42.008;21.356;2024-01-06T13:15:26;76.05;;;44.13;;
82722;SDS011;72450;42.008;21.356;2024-01-06T13:17:55;69.05;;;41.30;;
82722;SDS011;72450;42.008;21.356;2024-01-06T13:20:24;77.10;;;43.55;;
82722;SDS011;72450;42.008;21.356;2024-01-06T13:22:50;78.30;;;45.13;;
82722;SDS011;72450;42.008;21.356;2024-01-06T13:25:31;80.65;;;48.13;;
82722;SDS011;72450;42.008;21.356;2024-01-06T13:28:02;85.57;;;53.15;;
82722;SDS011;72450;42.008;21.356;2024-01-06T13:30:50;83.45;;;52.83;;
82722;SDS011;72450;42.008;21.356;2024-01-06T13:33:16;72.07;;;49.22;;
82722;SDS011;72450;42.008;21.356;2024-01-06T13:35:42;124.60;;;74.47;;
82722;SDS011;72450;42.008;21.356;2024-01-06T13:38:08;121.25;;;74.03;;
82722;SDS011;72450;42.008;21.356;2024-01-06T13:40:36;102.20;;;63.83;;
82722;SDS011;72450;42.008;21.356;2024-01-06T13:43:04;105.53;;;68.78;;
82722;SDS011;72450;42.008;21.356;2024-01-06T13:45:34;99.32;;;58.00;;
82722;SDS011;72450;42.008;21.356;2024-01-06T13:48:00;87.40;;;57.15;;
82722;SDS011;72450;42.008;21.356;2024-01-06T13:50:29;75.03;;;47.33;;
82722;SDS011;72450;42.008;21.356;2024-01-06T13:52:55;74.00;;;46.75;;
82722;SDS011;72450;42.008;21.356;2024-01-06T13:55:21;74.90;;;44.60;;
82722;SDS011;72450;42.008;21.356;2024-01-06T13:57:48;75.88;;;47.33;;
82722;SDS011;72450;42.008;21.356;2024-01-06T14:00:16;76.03;;;46.65;;
82722;SDS011;72450;42.008;21.356;2024-01-06T14:02:44;72.78;;;44.33;;
82722;SDS011;72450;42.008;21.356;2024-01-06T14:05:15;72.90;;;45.58;;